sensor_id;sensor_type;location;lat;lon;timestamp;temperature;humidity
34558;DHT22;24708;48.888;8.736;2023-02-28T06:31:20;-1.90;99.90
34558;DHT22;24708;48.888;8.736;2023-02-28T06:33:49;-1.90;99.90
34558;DHT22;24708;48.888;8.736;2023-02-28T06:36:17;-1.90;99.90
34558;DHT22;24708;48.888;8.736;2023-02-28T06:38:45;-2.00;99.90
34558;DHT22;24708;48.888;8.736;2023-02-28T06:41:12;-1.90;99.90
34558;DHT22;24708;48.888;8.736;2023-02-28T06:43:41;-1.90;99.90
34558;DHT22;24708;48.888;8.736;2023-02-28T06:46:12;-1.80;99.90
34558;DHT22;24708;48.888;8.736;2023-02-28T06:48:42;-1.80;99.90
34558;DHT22;24708;48.888;8.736;2023-02-28T06:51:13;-1.80;99.90
34558;DHT22;24708;48.888;8.736;2023-02-28T06:53:41;-1.80;99.90
34558;DHT22;24708;48.888;8.736;2023-02-28T06:56:12;-1.70;99.90
34558;DHT22;24708;48.888;8.736;2023-02-28T06:58:40;-1.50;99.90
34558;DHT22;24708;48.888;8.736;2023-02-28T07:01:09;-1.70;99.90
34558;DHT22;24708;48.888;8.736;2023-02-28T07:03:36;-1.60;99.90
34558;DHT22;24708;48.888;8.736;2023-02-28T07:06:05;-1.60;99.90
34558;DHT22;24708;48.888;8.736;2023-02-28T07:08:34;-1.70;99.90
34558;DHT22;24708;48.888;8.736;2023-02-28T07:11:04;-1.60;99.90
34558;DHT22;24708;48.888;8.736;2023-02-28T07:13:36;-1.60;99.90
34558;DHT22;24708;48.888;8.736;2023-02-28T07:16:06;-1.80;99.90
34558;DHT22;24708;48.888;8.736;2023-02-28T07:18:37;-1.80;99.90
34558;DHT22;24708;48.888;8.736;2023-02-28T07:21:10;-1.60;99.90
34558;DHT22;24708;48.888;8.736;2023-02-28T07:36:17;-1.60;99.90
34558;DHT22;24708;48.888;8.736;2023-02-28T07:38:47;-1.60;99.90
34558;DHT22;24708;48.888;8.736;2023-02-28T07:41:16;-1.60;99.90
34558;DHT22;24708;48.888;8.736;2023-02-28T07:43:44;-1.60;99.90
34558;DHT22;24708;48.888;8.736;2023-02-28T07:46:15;-1.60;99.90
34558;DHT22;24708;48.888;8.736;2023-02-28T07:48:44;-1.60;99.90
34558;DHT22;24708;48.888;8.736;2023-02-28T07:51:11;-1.50;99.90
34558;DHT22;24708;48.888;8.736;2023-02-28T07:53:40;-1.50;99.90
34558;DHT22;24708;48.888;8.736;2023-02-28T07:56:08;-1.50;99.90
34558;DHT22;24708;48.888;8.736;2023-02-28T07:58:35;-1.50;99.90
34558;DHT22;24708;48.888;8.736;2023-02-28T08:01:10;-1.40;99.90
34558;DHT22;24708;48.888;8.736;2023-02-28T08:03:38;-1.30;99.90
34558;DHT22;24708;48.888;8.736;2023-02-28T08:06:18;-1.50;99.90
34558;DHT22;24708;48.888;8.736;2023-02-28T08:08:46;-1.30;99.90
34558;DHT22;24708;48.888;8.736;2023-02-28T08:11:13;-1.30;99.90
34558;DHT22;24708;48.888;8.736;2023-02-28T08:13:40;-1.20;99.90
34558;DHT22;24708;48.888;8.736;2023-02-28T08:16:10;-1.20;99.90
34558;DHT22;24708;48.888;8.736;2023-02-28T08:18:38;-1.00;99.90
34558;DHT22;24708;48.888;8.736;2023-02-28T08:21:08;-1.50;99.90
34558;DHT22;24708;48.888;8.736;2023-02-28T08:23:36;-1.10;99.90
34558;DHT22;24708;48.888;8.736;2023-02-28T08:26:03;-1.10;99.90
34558;DHT22;24708;48.888;8.736;2023-02-28T08:28:32;-1.10;99.90
34558;DHT22;24708;48.888;8.736;2023-02-28T08:31:00;-1.60;99.90
34558;DHT22;24708;48.888;8.736;2023-02-28T08:33:27;-0.90;99.90
34558;DHT22;24708;48.888;8.736;2023-02-28T08:35:56;-0.90;99.90
34558;DHT22;24708;48.888;8.736;2023-02-28T08:38:24;-0.90;99.90
34558;DHT22;24708;48.888;8.736;2023-02-28T08:41:01;-0.90;99.90
34558;DHT22;24708;48.888;8.736;2023-02-28T08:43:29;-0.80;99.90
34558;DHT22;24708;48.888;8.736;2023-02-28T08:45:57;-0.30;99.90
34558;DHT22;24708;48.888;8.736;2023-02-28T08:48:28;-0.80;99.90
34558;DHT22;24708;48.888;8.736;2023-02-28T08:51:01;-0.90;99.90
34558;DHT22;24708;48.888;8.736;2023-02-28T08:53:36;-0.90;99.90
34558;DHT22;24708;48.888;8.736;2023-02-28T08:56:15;-0.60;99.90
34558;DHT22;24708;48.888;8.736;2023-02-28T08:58:45;0.30;99.90
34558;DHT22;24708;48.888;8.736;2023-02-28T09:01:21;-0.90;99.90
34558;DHT22;24708;48.888;8.736;2023-02-28T09:03:55;-0.70;99.90
34558;DHT22;24708;48.888;8.736;2023-02-28T09:06:34;-0.70;99.90
34558;DHT22;24708;48.888;8.736;2023-02-28T09:09:05;-0.60;99.90
34558;DHT22;24708;48.888;8.736;2023-02-28T09:11:37;-0.60;99.90
34558;DHT22;24708;48.888;8.736;2023-02-28T09:14:13;-1.00;99.90
34558;DHT22;24708;48.888;8.736;2023-02-28T09:16:49;-0.60;99.90
34558;DHT22;24708;48.888;8.736;2023-02-28T09:19:25;-0.50;99.90
34558;DHT22;24708;48.888;8.736;2023-02-28T09:22:10;0.40;99.90
34558;DHT22;24708;48.888;8.736;2023-02-28T09:24:49;-0.40;99.90
34558;DHT22;24708;48.888;8.736;2023-02-28T09:27:30;-0.40;99.90
34558;DHT22;24708;48.888;8.736;2023-02-28T09:32:36;-0.10;99.90
34558;DHT22;24708;48.888;8.736;2023-02-28T09:35:08;0.00;99.90
34558;DHT22;24708;48.888;8.736;2023-02-28T09:37:47;0.00;99.90
34558;DHT22;24708;48.888;8.736;2023-02-28T09:40:27;0.10;99.90
34558;DHT22;24708;48.888;8.736;2023-02-28T09:43:15;0.20;99.90
34558;DHT22;24708;48.888;8.736;2023-02-28T09:46:08;0.20;99.90
34558;DHT22;24708;48.888;8.736;2023-02-28T09:48:44;0.30;99.90
34558;DHT22;24708;48.888;8.736;2023-02-28T09:54:24;0.40;99.90
34558;DHT22;24708;48.888;8.736;2023-02-28T09:57:22;0.40;99.90
34558;DHT22;24708;48.888;8.736;2023-02-28T10:00:13;0.30;99.90
34558;DHT22;24708;48.888;8.736;2023-02-28T10:05:56;0.50;99.90
34558;DHT22;24708;48.888;8.736;2023-02-28T10:08:35;0.60;99.90
34558;DHT22;24708;48.888;8.736;2023-02-28T10:11:14;0.60;99.90
34558;DHT22;24708;48.888;8.736;2023-02-28T10:14:05;-0.10;99.90
34558;DHT22;24708;48.888;8.736;2023-02-28T10:16:48;0.80;99.90
34558;DHT22;24708;48.888;8.736;2023-02-28T10:21:55;0.50;99.90
34558;DHT22;24708;48.888;8.736;2023-02-28T10:24:35;0.60;99.90
34558;DHT22;24708;48.888;8.736;2023-02-28T10:27:13;0.30;99.90
34558;DHT22;24708;48.888;8.736;2023-02-28T10:29:47;0.30;99.90
34558;DHT22;24708;48.888;8.736;2023-02-28T10:32:32;1.60;99.90
34558;DHT22;24708;48.888;8.736;2023-02-28T10:35:23;0.30;99.90
34558;DHT22;24708;48.888;8.736;2023-02-28T10:38:34;0.50;99.90
34558;DHT22;24708;48.888;8.736;2023-02-28T10:41:13;0.50;99.90
34558;DHT22;24708;48.888;8.736;2023-02-28T10:43:45;0.30;99.90
34558;DHT22;24708;48.888;8.736;2023-02-28T10:46:18;0.60;99.90
34558;DHT22;24708;48.888;8.736;2023-02-28T10:49:05;0.80;99.90
34558;DHT22;24708;48.888;8.736;2023-02-28T10:51:42;0.80;99.90
34558;DHT22;24708;48.888;8.736;2023-02-28T10:54:36;1.00;99.90
34558;DHT22;24708;48.888;8.736;2023-02-28T10:57:17;1.10;99.90
34558;DHT22;24708;48.888;8.736;2023-02-28T11:00:08;1.00;99.90
34558;DHT22;24708;48.888;8.736;2023-02-28T11:02:41;1.30;99.90
34558;DHT22;24708;48.888;8.736;2023-02-28T11:05:31;1.20;99.90
34558;DHT22;24708;48.888;8.736;2023-02-28T11:10:53;1.40;99.90
34558;DHT22;24708;48.888;8.736;2023-02-28T11:13:26;3.10;99.90
34558;DHT22;24708;48.888;8.736;2023-02-28T11:16:07;1.80;99.90
34558;DHT22;24708;48.888;8.736;2023-02-28T11:21:18;1.90;99.90
34558;DHT22;24708;48.888;8.736;2023-02-28T11:23:50;2.00;99.90
34558;DHT22;24708;48.888;8.736;2023-02-28T11:26:37;2.00;99.90
34558;DHT22;24708;48.888;8.736;2023-02-28T11:29:17;1.90;99.90
34558;DHT22;24708;48.888;8.736;2023-02-28T11:32:03;1.90;99.90
34558;DHT22;24708;48.888;8.736;2023-02-28T11:34:31;1.70;99.90
34558;DHT22;24708;48.888;8.736;2023-02-28T11:37:02;2.90;99.90
34558;DHT22;24708;48.888;8.736;2023-02-28T11:39:34;1.60;99.90
34558;DHT22;24708;48.888;8.736;2023-02-28T11:44:48;1.70;99.90
34558;DHT22;24708;48.888;8.736;2023-02-28T11:47:42;2.00;99.90
34558;DHT22;24708;48.888;8.736;2023-02-28T11:50:45;1.70;99.90
34558;DHT22;24708;48.888;8.736;2023-02-28T11:56:41;2.20;99.90
34558;DHT22;24708;48.888;8.736;2023-02-28T12:02:30;2.40;99.90
34558;DHT22;24708;48.888;8.736;2023-02-28T12:05:24;2.80;99.90
34558;DHT22;24708;48.888;8.736;2023-02-28T12:11:03;3.00;99.90
34558;DHT22;24708;48.888;8.736;2023-02-28T12:16:27;3.10;99.90
34558;DHT22;24708;48.888;8.736;2023-02-28T12:25:08;2.60;99.90
34558;DHT22;24708;48.888;8.736;2023-02-28T12:27:40;2.30;99.90
34558;DHT22;24708;48.888;8.736;2023-02-28T12:30:25;2.70;99.90
34558;DHT22;24708;48.888;8.736;2023-02-28T12:33:06;2.60;99.90
34558;DHT22;24708;48.888;8.736;2023-02-28T12:35:47;2.70;99.90
34558;DHT22;24708;48.888;8.736;2023-02-28T12:38:22;2.60;99.90
34558;DHT22;24708;48.888;8.736;2023-02-28T12:41:13;2.60;99.90
34558;DHT22;24708;48.888;8.736;2023-02-28T12:43:58;2.60;99.90
34558;DHT22;24708;48.888;8.736;2023-02-28T12:46:35;2.70;99.90
34558;DHT22;24708;48.888;8.736;2023-02-28T12:49:23;2.70;99.90
34558;DHT22;24708;48.888;8.736;2023-02-28T12:51:52;2.90;99.90
34558;DHT22;24708;48.888;8.736;2023-02-28T12:54:30;2.70;99.90
34558;DHT22;24708;48.888;8.736;2023-02-28T12:57:17;2.70;99.90
34558;DHT22;24708;48.888;8.736;2023-02-28T13:00:00;3.00;99.90
34558;DHT22;24708;48.888;8.736;2023-02-28T13:10:52;3.90;99.90
34558;DHT22;24708;48.888;8.736;2023-02-28T13:13:25;3.70;99.90
34558;DHT22;24708;48.888;8.736;2023-02-28T13:16:04;3.70;99.90
34558;DHT22;24708;48.888;8.736;2023-02-28T13:18:39;3.60;99.90
34558;DHT22;24708;48.888;8.736;2023-02-28T13:21:26;3.40;99.90
34558;DHT22;24708;48.888;8.736;2023-02-28T13:24:03;3.60;99.90
34558;DHT22;24708;48.888;8.736;2023-02-28T13:34:35;4.50;99.90
34558;DHT22;24708;48.888;8.736;2023-02-28T13:39:52;4.40;99.90
34558;DHT22;24708;48.888;8.736;2023-02-28T13:42:33;4.40;99.90
34558;DHT22;24708;48.888;8.736;2023-02-28T13:47:54;4.20;99.90
34558;DHT22;24708;48.888;8.736;2023-02-28T13:50:35;4.00;99.90
34558;DHT22;24708;48.888;8.736;2023-02-28T13:56:35;4.00;99.90
34558;DHT22;24708;48.888;8.736;2023-02-28T13:59:15;4.20;99.90
34558;DHT22;24708;48.888;8.736;2023-02-28T14:04:48;4.30;99.90
34558;DHT22;24708;48.888;8.736;2023-02-28T14:07:48;4.30;99.90
34558;DHT22;24708;48.888;8.736;2023-02-28T14:10:28;4.50;99.90
34558;DHT22;24708;48.888;8.736;2023-02-28T14:13:13;4.60;99.90
34558;DHT22;24708;48.888;8.736;2023-02-28T14:18:31;4.50;99.90
34558;DHT22;24708;48.888;8.736;2023-02-28T14:21:19;4.50;99.90
34558;DHT22;24708;48.888;8.736;2023-02-28T14:26:38;4.30;99.90
34558;DHT22;24708;48.888;8.736;2023-02-28T14:29:35;4.20;99.90
34558;DHT22;24708;48.888;8.736;2023-02-28T14:34:44;6.00;99.90
34558;DHT22;24708;48.888;8.736;2023-02-28T14:37:16;4.20;99.90
34558;DHT22;24708;48.888;8.736;2023-02-28T14:39:47;4.30;99.90
34558;DHT22;24708;48.888;8.736;2023-02-28T14:42:36;4.30;99.90
34558;DHT22;24708;48.888;8.736;2023-02-28T14:45:05;4.20;99.90
34558;DHT22;24708;48.888;8.736;2023-02-28T14:47:35;4.20;99.90
34558;DHT22;24708;48.888;8.736;2023-02-28T14:50:04;4.00;99.90
34558;DHT22;24708;48.888;8.736;2023-02-28T14:52:32;3.90;99.90
34558;DHT22;24708;48.888;8.736;2023-02-28T14:55:04;3.80;99.90
34558;DHT22;24708;48.888;8.736;2023-02-28T14:57:39;3.90;99.90
34558;DHT22;24708;48.888;8.736;2023-02-28T15:02:42;4.00;99.90
34558;DHT22;24708;48.888;8.736;2023-02-28T15:07:37;4.10;99.90
34558;DHT22;24708;48.888;8.736;2023-02-28T15:10:18;4.00;99.90
34558;DHT22;24708;48.888;8.736;2023-02-28T15:13:00;4.00;99.90
34558;DHT22;24708;48.888;8.736;2023-02-28T15:16:04;3.90;99.90
34558;DHT22;24708;48.888;8.736;2023-02-28T15:21:03;3.90;99.90
34558;DHT22;24708;48.888;8.736;2023-02-28T15:23:32;3.80;99.90
34558;DHT22;24708;48.888;8.736;2023-02-28T15:26:01;3.80;99.90
34558;DHT22;24708;48.888;8.736;2023-02-28T15:28:29;3.90;99.90
34558;DHT22;24708;48.888;8.736;2023-02-28T15:31:01;3.80;99.90
34558;DHT22;24708;48.888;8.736;2023-02-28T15:33:30;3.80;99.90
34558;DHT22;24708;48.888;8.736;2023-02-28T15:36:31;3.80;99.90
34558;DHT22;24708;48.888;8.736;2023-02-28T15:39:00;3.70;99.90
34558;DHT22;24708;48.888;8.736;2023-02-28T15:41:42;3.60;99.90
34558;DHT22;24708;48.888;8.736;2023-02-28T15:44:26;3.60;99.90
34558;DHT22;24708;48.888;8.736;2023-02-28T15:47:11;3.60;99.90
34558;DHT22;24708;48.888;8.736;2023-02-28T15:49:49;3.50;99.90
34558;DHT22;24708;48.888;8.736;2023-02-28T15:52:20;3.50;99.90
34558;DHT22;24708;48.888;8.736;2023-02-28T15:54:48;3.60;99.90
34558;DHT22;24708;48.888;8.736;2023-02-28T15:57:23;3.50;99.90
34558;DHT22;24708;48.888;8.736;2023-02-28T15:59:55;3.50;99.90
34558;DHT22;24708;48.888;8.736;2023-02-28T16:02:35;3.50;99.90
34558;DHT22;24708;48.888;8.736;2023-02-28T16:07:41;3.50;99.90
34558;DHT22;24708;48.888;8.736;2023-02-28T16:10:12;3.50;99.90
34558;DHT22;24708;48.888;8.736;2023-02-28T16:12:41;3.40;99.90
34558;DHT22;24708;48.888;8.736;2023-02-28T16:15:27;3.40;99.90
34558;DHT22;24708;48.888;8.736;2023-02-28T16:17:57;3.40;99.90
34558;DHT22;24708;48.888;8.736;2023-02-28T16:20:28;3.30;99.90
34558;DHT22;24708;48.888;8.736;2023-02-28T16:22:56;3.20;99.90
34558;DHT22;24708;48.888;8.736;2023-02-28T16:25:29;3.20;99.90
34558;DHT22;24708;48.888;8.736;2023-02-28T16:27:59;3.20;99.90
34558;DHT22;24708;48.888;8.736;2023-02-28T16:30:29;3.10;99.90
34558;DHT22;24708;48.888;8.736;2023-02-28T16:32:59;3.10;99.90
34558;DHT22;24708;48.888;8.736;2023-02-28T16:37:54;3.00;99.90
34558;DHT22;24708;48.888;8.736;2023-02-28T16:40:24;3.00;99.90
34558;DHT22;24708;48.888;8.736;2023-02-28T16:42:54;2.90;99.90
34558;DHT22;24708;48.888;8.736;2023-02-28T16:45:27;2.90;99.90
34558;DHT22;24708;48.888;8.736;2023-02-28T16:47:55;2.90;99.90
34558;DHT22;24708;48.888;8.736;2023-02-28T16:50:28;2.90;99.90
34558;DHT22;24708;48.888;8.736;2023-02-28T16:52:56;2.90;99.90
34558;DHT22;24708;48.888;8.736;2023-02-28T16:55:25;2.80;99.90
34558;DHT22;24708;48.888;8.736;2023-02-28T16:57:55;2.70;99.90
